createdAt,value
2023-03-26T00:01:45.219Z,3.67
2023-03-26T00:04:12.918Z,3.83
2023-03-26T00:06:40.568Z,3.60
2023-03-26T00:09:09.073Z,6.47
2023-03-26T00:11:36.757Z,2.58
2023-03-26T00:14:04.179Z,4.15
2023-03-26T00:16:32.005Z,2.28
2023-03-26T00:18:59.713Z,4.78
2023-03-26T00:21:28.485Z,3.38
2023-03-26T00:23:57.055Z,4.82
2023-03-26T00:26:24.743Z,2.70
2023-03-26T00:28:52.146Z,1.80
2023-03-26T00:31:19.849Z,3.40
2023-03-26T00:33:47.277Z,1.95
2023-03-26T00:36:15.859Z,4.65
2023-03-26T00:38:43.920Z,4.00
2023-03-26T00:41:12.403Z,3.25
2023-03-26T00:43:39.722Z,2.17
2023-03-26T00:46:07.372Z,2.58
2023-03-26T00:48:44.427Z,3.70
2023-03-26T00:51:13.852Z,4.20
2023-03-26T00:53:41.728Z,3.63
2023-03-26T00:56:09.820Z,2.60
2023-03-26T00:58:37.438Z,3.40
2023-03-26T01:01:07.152Z,3.35
2023-03-26T01:03:35.645Z,2.75
2023-03-26T01:06:07.314Z,6.40
2023-03-26T01:08:39.664Z,2.40
2023-03-26T01:11:27.572Z,2.50
2023-03-26T01:13:59.989Z,3.83
2023-03-26T01:16:31.178Z,2.33
2023-03-26T01:18:58.837Z,2.47
2023-03-26T01:21:27.926Z,2.63
2023-03-26T01:23:59.306Z,3.90
2023-03-26T01:26:35.819Z,3.22
2023-03-26T01:29:04.230Z,2.40
2023-03-26T01:31:35.058Z,3.55
2023-03-26T01:34:23.694Z,3.28
2023-03-26T01:36:57.356Z,2.70
2023-03-26T01:39:44.966Z,2.50
2023-03-26T01:42:14.823Z,4.45
2023-03-26T01:44:55.182Z,2.22
2023-03-26T01:47:23.108Z,6.05
2023-03-26T01:49:50.517Z,2.97
2023-03-26T01:52:20.071Z,2.60
2023-03-26T01:54:47.538Z,6.47
2023-03-26T01:57:33.563Z,3.67
2023-03-26T02:00:09.992Z,3.83
2023-03-26T02:02:37.910Z,3.97
2023-03-26T02:05:20.793Z,3.95
2023-03-26T02:07:51.506Z,4.60
2023-03-26T02:10:30.569Z,4.50
2023-03-26T02:12:58.340Z,6.13
2023-03-26T02:15:25.675Z,5.20
2023-03-26T02:17:53.397Z,7.35
2023-03-26T02:20:21.224Z,5.25
2023-03-26T02:22:48.931Z,4.68
2023-03-26T02:25:17.803Z,3.83
2023-03-26T02:27:46.166Z,4.43
2023-03-26T02:30:15.977Z,5.20
2023-03-26T02:32:43.630Z,4.95
2023-03-26T02:35:12.224Z,4.97
2023-03-26T02:37:40.166Z,5.22
2023-03-26T02:40:08.018Z,6.32
2023-03-26T02:42:35.640Z,5.88
2023-03-26T02:45:03.231Z,4.07
2023-03-26T02:47:31.071Z,6.85
2023-03-26T02:49:58.409Z,7.97
2023-03-26T02:52:26.017Z,5.80
2023-03-26T02:54:53.350Z,6.50
2023-03-26T02:57:21.345Z,4.32
2023-03-26T02:59:48.742Z,5.90
2023-03-26T03:18:32.669Z,4.88
2023-03-26T03:20:59.993Z,4.05
2023-03-26T03:23:27.628Z,5.82
2023-03-26T03:25:55.147Z,4.13
2023-03-26T03:28:23.310Z,5.30
2023-03-26T03:30:50.990Z,6.38
2023-03-26T03:33:20.832Z,4.10
2023-03-26T03:35:48.522Z,5.25
2023-03-26T03:38:19.507Z,3.72
2023-03-26T03:40:46.869Z,5.40
2023-03-26T03:43:14.679Z,6.57
2023-03-26T03:45:42.105Z,4.10
2023-03-26T03:48:09.885Z,7.07
2023-03-26T03:50:37.327Z,5.90
2023-03-26T03:53:04.937Z,6.30
2023-03-26T03:55:32.357Z,3.15
2023-03-26T03:58:00.128Z,3.05
2023-03-26T04:00:27.488Z,3.17
2023-03-26T04:02:55.164Z,2.35
2023-03-26T04:05:22.583Z,4.45
2023-03-26T04:07:50.225Z,3.47
2023-03-26T04:10:17.580Z,2.88
2023-03-26T04:12:45.238Z,3.75
2023-03-26T04:15:12.593Z,2.42
2023-03-26T04:17:40.182Z,2.95
2023-03-26T04:20:07.765Z,3.13
2023-03-26T04:22:35.338Z,3.92
2023-03-26T04:25:02.696Z,3.85
2023-03-26T04:27:31.802Z,1.65
2023-03-26T04:30:00.968Z,2.92
2023-03-26T04:32:30.065Z,1.55
2023-03-26T04:34:57.713Z,1.65
2023-03-26T04:37:27.336Z,2.08
2023-03-26T04:39:54.681Z,3.45
2023-03-26T04:42:22.314Z,1.17
2023-03-26T04:44:49.635Z,1.80
2023-03-26T04:47:17.801Z,2.20
2023-03-26T04:49:48.110Z,2.45
2023-03-26T04:52:15.568Z,1.73
2023-03-26T04:54:44.275Z,2.92
2023-03-26T04:57:14.485Z,1.90
2023-03-26T04:59:42.189Z,2.00
2023-03-26T05:02:11.482Z,2.75
2023-03-26T05:04:39.269Z,1.40
2023-03-26T05:07:06.879Z,1.08
2023-03-26T05:09:34.497Z,1.48
2023-03-26T05:12:01.892Z,3.22
2023-03-26T05:14:29.565Z,2.15
2023-03-26T05:16:56.944Z,0.88
2023-03-26T05:19:24.700Z,2.20
2023-03-26T05:21:52.033Z,0.60
2023-03-26T05:24:19.694Z,1.48
2023-03-26T05:26:47.120Z,1.33
2023-03-26T05:29:16.378Z,1.10
2023-03-26T05:31:44.008Z,1.65
2023-03-26T05:34:11.677Z,0.95
2023-03-26T05:36:39.012Z,2.60
2023-03-26T05:39:06.648Z,1.58
2023-03-26T05:41:36.998Z,1.05
2023-03-26T05:44:04.736Z,2.53
2023-03-26T05:46:34.868Z,1.25
2023-03-26T05:49:02.645Z,1.27
2023-03-26T05:51:32.402Z,1.50
2023-03-26T05:54:04.011Z,2.45
2023-03-26T05:56:31.337Z,3.40
2023-03-26T05:58:58.983Z,1.13
2023-03-26T06:01:26.466Z,3.67
2023-03-26T06:03:54.307Z,1.40
2023-03-26T06:06:21.892Z,3.47
2023-03-26T06:09:01.560Z,2.25
2023-03-26T06:11:30.616Z,2.00
2023-03-26T06:13:58.520Z,2.17
2023-03-26T06:16:28.063Z,5.22
2023-03-26T06:18:57.632Z,1.60
2023-03-26T06:21:28.800Z,1.55
2023-03-26T06:23:56.545Z,1.30
2023-03-26T06:26:23.979Z,4.60
2023-03-26T06:28:51.736Z,2.13
2023-03-26T06:31:19.158Z,1.15
2023-03-26T06:33:47.083Z,2.42
2023-03-26T06:36:14.464Z,2.92
2023-03-26T06:38:42.135Z,1.88
2023-03-26T06:41:09.494Z,2.22
2023-03-26T06:43:37.156Z,3.05
2023-03-26T06:46:05.197Z,5.97
2023-03-26T06:48:33.457Z,0.98
2023-03-26T06:51:01.150Z,1.58
2023-03-26T06:53:28.880Z,1.33
2023-03-26T06:55:56.339Z,2.15
2023-03-26T06:58:24.120Z,2.35
2023-03-26T07:00:54.751Z,0.82
2023-03-26T07:03:22.847Z,1.27
2023-03-26T07:05:50.141Z,2.28
2023-03-26T07:08:17.746Z,1.60
2023-03-26T07:10:45.259Z,1.00
2023-03-26T07:13:13.309Z,3.17
2023-03-26T07:15:40.919Z,3.90
2023-03-26T07:18:08.734Z,3.22
2023-03-26T07:20:36.213Z,2.30
2023-03-26T07:23:04.016Z,3.17
2023-03-26T07:25:31.564Z,0.90
2023-03-26T07:28:17.934Z,0.70
2023-03-26T07:31:04.674Z,2.10
2023-03-26T07:33:38.999Z,2.88
2023-03-26T07:36:15.734Z,2.60
2023-03-26T07:39:01.395Z,2.35
2023-03-26T07:41:34.727Z,1.08
2023-03-26T07:44:25.230Z,1.48
2023-03-26T07:46:52.820Z,3.40
2023-03-26T07:49:20.554Z,2.72
2023-03-26T07:51:48.917Z,2.33
2023-03-26T07:54:16.815Z,1.60
2023-03-26T07:56:59.921Z,3.10
2023-03-26T07:59:29.739Z,0.82
2023-03-26T08:01:59.835Z,3.17
2023-03-26T08:04:43.299Z,3.22
2023-03-26T08:07:22.698Z,3.30
2023-03-26T08:10:06.833Z,2.65
2023-03-26T08:12:46.058Z,1.83
2023-03-26T08:15:32.408Z,1.42
2023-03-26T08:18:03.437Z,1.35
2023-03-26T08:20:37.759Z,1.63
2023-03-26T08:23:11.762Z,2.33
2023-03-26T08:25:46.704Z,1.10
2023-03-26T08:28:14.013Z,3.75
2023-03-26T08:30:47.866Z,2.00
2023-03-26T08:33:19.872Z,2.67
2023-03-26T08:35:48.167Z,1.50
2023-03-26T08:38:17.245Z,2.25
2023-03-26T08:40:54.079Z,2.63
2023-03-26T08:43:21.523Z,3.20
2023-03-26T08:46:07.478Z,1.48
2023-03-26T08:48:44.981Z,1.58
2023-03-26T08:51:12.642Z,3.05
2023-03-26T08:53:45.859Z,1.63
2023-03-26T08:56:22.767Z,4.20
2023-03-26T08:58:52.959Z,1.83
2023-03-26T09:01:39.193Z,3.95
2023-03-26T09:04:12.516Z,1.90
2023-03-26T09:06:40.251Z,2.70
2023-03-26T09:09:31.415Z,1.30
2023-03-26T09:11:59.185Z,1.43
2023-03-26T09:14:45.433Z,1.95
2023-03-26T09:17:15.782Z,1.30
2023-03-26T09:20:12.490Z,3.10
2023-03-26T09:22:52.226Z,0.98
2023-03-26T09:25:19.581Z,1.95
2023-03-26T09:27:53.204Z,2.10
2023-03-26T09:30:39.263Z,2.55
2023-03-26T09:33:21.549Z,2.08
2023-03-26T09:35:54.715Z,1.17
2023-03-26T09:38:36.213Z,2.42
2023-03-26T09:41:12.680Z,1.95
2023-03-26T09:43:47.424Z,4.00
2023-03-26T09:46:42.116Z,0.93
2023-03-26T09:49:09.716Z,2.20
2023-03-26T09:51:55.195Z,2.35
2023-03-26T09:54:31.847Z,1.85
2023-03-26T09:57:08.050Z,2.90
2023-03-26T09:59:38.612Z,1.20
2023-03-26T10:02:17.953Z,1.20
2023-03-26T10:04:48.631Z,1.80
2023-03-26T10:07:21.847Z,2.30
2023-03-26T10:10:08.083Z,2.90
2023-03-26T10:13:08.143Z,1.60
2023-03-26T10:15:53.182Z,1.67
2023-03-26T10:18:27.784Z,2.25
2023-03-26T10:21:01.283Z,2.50
2023-03-26T10:23:39.541Z,2.28
2023-03-26T10:26:10.017Z,2.00
2023-03-26T10:28:37.397Z,2.15
2023-03-26T10:31:16.895Z,5.60
2023-03-26T10:33:52.939Z,0.52
2023-03-26T10:36:35.337Z,2.10
2023-03-26T10:39:02.609Z,2.17
2023-03-26T10:41:30.315Z,3.20
2023-03-26T10:44:16.024Z,2.28
2023-03-26T10:46:55.575Z,4.30
2023-03-26T10:49:46.675Z,1.10
2023-03-26T10:52:15.722Z,2.42
2023-03-26T10:54:52.207Z,1.10
2023-03-26T10:57:22.675Z,1.42
2023-03-26T10:59:50.687Z,2.25
2023-03-26T11:02:40.959Z,1.65
2023-03-26T11:05:26.231Z,1.45
2023-03-26T11:08:13.132Z,3.05
2023-03-26T11:11:02.144Z,1.95
2023-03-26T11:13:48.863Z,1.95
2023-03-26T11:16:39.084Z,1.60
2023-03-26T11:19:22.338Z,2.35
2023-03-26T11:22:10.139Z,1.38
2023-03-26T11:25:04.436Z,1.58
2023-03-26T11:27:35.734Z,1.45
2023-03-26T11:30:13.552Z,1.40
2023-03-26T11:32:55.088Z,2.75
2023-03-26T11:35:40.993Z,1.83
2023-03-26T11:38:21.086Z,2.30
2023-03-26T11:40:50.508Z,1.92
2023-03-26T11:43:20.746Z,1.83
2023-03-26T11:45:50.502Z,2.72
2023-03-26T11:48:29.301Z,1.85
2023-03-26T11:51:07.804Z,0.90
2023-03-26T11:53:36.367Z,2.13
2023-03-26T11:56:08.727Z,3.58
2023-03-26T12:01:04.625Z,2.92
2023-03-26T12:03:32.065Z,3.50
2023-03-26T12:05:59.876Z,3.95
2023-03-26T12:08:30.133Z,3.22
2023-03-26T12:11:04.088Z,3.00
2023-03-26T12:13:35.816Z,3.47
2023-03-26T12:16:11.153Z,1.55
2023-03-26T12:18:39.180Z,1.67
2023-03-26T12:21:08.752Z,3.03
2023-03-26T12:23:36.530Z,4.70
2023-03-26T12:26:05.546Z,6.00
2023-03-26T12:28:32.933Z,2.05
2023-03-26T12:31:13.320Z,2.65
2023-03-26T12:33:40.891Z,4.18
2023-03-26T12:36:22.478Z,2.80
2023-03-26T12:40:06.112Z,2.28
2023-03-26T12:43:51.615Z,2.92
2023-03-26T12:45:00.128Z,3.22
2023-03-26T12:47:59.725Z,5.53
2023-03-26T12:50:17.741Z,1.77
2023-03-26T12:53:20.965Z,3.25
2023-03-26T12:55:48.305Z,2.95
2023-03-26T12:58:18.792Z,4.65
2023-03-26T13:00:55.785Z,3.90
2023-03-26T13:03:26.734Z,2.42
2023-03-26T13:05:54.106Z,2.60
2023-03-26T13:08:39.165Z,2.65
2023-03-26T13:11:09.263Z,1.80
2023-03-26T13:13:48.162Z,3.13
2023-03-26T13:16:15.499Z,1.27
2023-03-26T13:18:50.201Z,2.47
2023-03-26T13:21:20.330Z,1.90
2023-03-26T13:23:48.053Z,2.30
2023-03-26T13:26:34.656Z,2.05
2023-03-26T13:29:16.642Z,3.28
2023-03-26T13:31:46.856Z,2.28
2023-03-26T13:34:23.384Z,1.50
2023-03-26T13:36:58.664Z,4.85
2023-03-26T13:39:49.074Z,2.70
2023-03-26T13:42:22.124Z,2.72
2023-03-26T13:45:04.608Z,2.88
2023-03-26T13:47:35.310Z,2.65
2023-03-26T13:50:21.637Z,2.53
2023-03-26T13:52:48.953Z,2.53
2023-03-26T13:55:19.463Z,5.20
2023-03-26T13:57:50.975Z,6.45
2023-03-26T14:00:21.075Z,1.50
2023-03-26T14:03:03.952Z,2.15
2023-03-26T14:05:34.870Z,2.65
2023-03-26T14:08:11.152Z,1.70
2023-03-26T14:10:41.151Z,1.80
2023-03-26T14:13:27.165Z,2.17
2023-03-26T14:15:59.008Z,2.63
2023-03-26T14:18:46.236Z,3.85
2023-03-26T14:21:35.983Z,2.30
2023-03-26T14:24:09.261Z,3.13
2023-03-26T14:26:57.166Z,1.80
2023-03-26T14:29:56.895Z,2.85
2023-03-26T14:32:31.616Z,3.35
2023-03-26T14:35:17.757Z,2.90
2023-03-26T14:38:03.963Z,8.65
2023-03-26T14:40:51.534Z,4.82
2023-03-26T14:43:24.951Z,3.15
2023-03-26T14:45:58.033Z,4.45
2023-03-26T14:48:40.925Z,1.27
2023-03-26T14:51:28.242Z,7.13
2023-03-26T14:53:58.998Z,4.80
2023-03-26T14:56:45.036Z,2.95
2023-03-26T14:59:31.329Z,5.45
2023-03-26T15:02:10.564Z,5.45
2023-03-26T15:04:44.362Z,4.53
2023-03-26T15:07:18.672Z,13.27
2023-03-26T15:09:49.118Z,7.68
2023-03-26T15:12:35.292Z,2.90
2023-03-26T15:15:08.735Z,1.63
2023-03-26T15:17:54.796Z,2.47
2023-03-26T15:20:31.347Z,4.85
2023-03-26T15:23:10.684Z,4.50
2023-03-26T15:25:50.372Z,2.45
2023-03-26T15:28:17.686Z,4.55
2023-03-26T15:30:54.436Z,3.95
2023-03-26T15:33:40.614Z,5.22
2023-03-26T15:36:20.011Z,4.30
2023-03-26T15:38:47.313Z,3.65
2023-03-26T15:41:35.103Z,6.18
2023-03-26T15:44:24.098Z,3.10
2023-03-26T15:46:55.824Z,4.00
2023-03-26T15:49:26.088Z,6.20
2023-03-26T15:51:56.542Z,5.68
2023-03-26T15:54:29.486Z,6.40
2023-03-26T15:57:02.890Z,7.72
2023-03-26T15:59:40.212Z,8.65
2023-03-26T16:02:29.944Z,11.93
2023-03-26T16:05:06.258Z,8.18
2023-03-26T16:08:00.013Z,7.78
2023-03-26T16:10:27.346Z,6.32
2023-03-26T16:12:54.950Z,13.40
2023-03-26T16:15:27.666Z,13.73
2023-03-26T16:18:10.577Z,15.20
2023-03-26T16:20:43.962Z,19.42
2023-03-26T16:23:19.999Z,6.97
2023-03-26T16:26:13.536Z,4.00
2023-03-26T16:28:46.928Z,11.10
2023-03-26T16:31:23.523Z,6.97
2023-03-26T16:34:01.960Z,8.30
2023-03-26T16:36:32.179Z,6.95
2023-03-26T16:39:05.278Z,26.70
2023-03-26T16:41:33.260Z,10.27
2023-03-26T16:44:22.517Z,6.25
2023-03-26T16:47:07.604Z,5.35
2023-03-26T16:50:09.077Z,7.55
2023-03-26T16:52:48.788Z,7.05
2023-03-26T16:55:19.933Z,11.52
2023-03-26T16:57:55.133Z,23.45
2023-03-26T17:00:22.891Z,20.60
2023-03-26T17:03:09.048Z,14.75
2023-03-26T17:05:40.033Z,11.30
2023-03-26T17:08:13.892Z,10.07
2023-03-26T17:10:57.100Z,13.45
2023-03-26T17:13:31.309Z,22.38
2023-03-26T17:16:25.597Z,39.53
2023-03-26T17:18:53.025Z,29.25
2023-03-26T17:21:46.140Z,20.88
2023-03-26T17:24:35.342Z,23.40
2023-03-26T17:27:02.908Z,20.42
2023-03-26T17:29:56.501Z,29.30
2023-03-26T17:32:24.416Z,29.45
2023-03-26T17:34:51.784Z,33.30
2023-03-26T17:37:19.458Z,29.48
2023-03-26T17:39:46.759Z,28.27
2023-03-26T17:42:19.540Z,30.80
2023-03-26T17:44:50.582Z,30.67
2023-03-26T17:47:22.319Z,26.60
2023-03-26T17:49:52.990Z,34.90
2023-03-26T17:52:23.405Z,25.45
2023-03-26T17:54:52.500Z,25.63
2023-03-26T17:57:22.364Z,25.20
2023-03-26T17:59:50.733Z,22.92
2023-03-26T18:02:22.970Z,23.65
2023-03-26T18:04:51.773Z,22.85
2023-03-26T18:07:57.876Z,26.90
2023-03-26T18:10:37.511Z,22.38
2023-03-26T18:13:08.485Z,20.23
2023-03-26T18:15:45.271Z,22.15
2023-03-26T18:18:32.048Z,17.75
2023-03-26T18:21:02.394Z,11.90
2023-03-26T18:23:38.758Z,13.90
2023-03-26T18:26:11.019Z,12.05
2023-03-26T18:28:43.760Z,13.20
2023-03-26T18:31:18.925Z,12.38
2023-03-26T18:33:47.978Z,10.70
2023-03-26T18:36:16.617Z,8.63
2023-03-26T18:38:45.234Z,8.43
2023-03-26T18:41:20.836Z,8.88
2023-03-26T18:43:48.552Z,8.52
2023-03-26T18:46:16.089Z,4.38
2023-03-26T18:48:44.075Z,5.72
2023-03-26T18:51:12.010Z,6.68
2023-03-26T18:53:49.221Z,7.72
2023-03-26T18:56:19.643Z,12.05
2023-03-26T18:58:50.350Z,11.32
2023-03-26T19:01:25.339Z,10.10
2023-03-26T19:03:54.251Z,7.93
2023-03-26T19:06:22.314Z,7.68
2023-03-26T19:08:50.266Z,7.03
2023-03-26T19:11:17.777Z,8.43
2023-03-26T19:13:49.973Z,6.03
2023-03-26T19:16:22.582Z,7.65
2023-03-26T19:18:50.944Z,5.70
2023-03-26T19:21:19.347Z,6.57
2023-03-26T19:23:47.240Z,4.90
2023-03-26T19:26:15.213Z,6.28
2023-03-26T19:28:43.928Z,6.43
2023-03-26T19:31:19.558Z,7.78
2023-03-26T19:33:54.431Z,8.00
2023-03-26T19:36:24.343Z,5.40
2023-03-26T19:38:53.573Z,6.35
2023-03-26T19:41:25.509Z,7.97
2023-03-26T19:43:55.886Z,5.57
2023-03-26T19:46:23.948Z,9.30
2023-03-26T19:48:52.770Z,7.85
2023-03-26T19:51:37.979Z,11.32
2023-03-26T19:54:15.750Z,8.45
2023-03-26T19:56:43.279Z,9.25
2023-03-26T19:59:11.316Z,8.52
2023-03-26T20:01:38.773Z,11.27
2023-03-26T20:04:06.815Z,10.88
2023-03-26T20:09:22.107Z,12.38
2023-03-26T20:11:49.624Z,14.57
2023-03-26T20:14:18.392Z,11.40
2023-03-26T20:16:46.194Z,10.45
2023-03-26T20:19:14.674Z,10.18
2023-03-26T20:21:43.113Z,12.32
2023-03-26T20:24:12.445Z,17.63
2023-03-26T20:26:40.104Z,41.35
2023-03-26T20:29:07.765Z,32.65
2023-03-26T20:31:35.359Z,47.38
2023-03-26T20:34:03.153Z,62.42
2023-03-26T20:36:33.136Z,46.08
2023-03-26T20:39:03.571Z,39.80
2023-03-26T20:41:30.911Z,20.10
2023-03-26T20:43:58.608Z,18.80
2023-03-26T20:46:31.232Z,24.83
2023-03-26T20:48:59.731Z,24.50
2023-03-26T20:51:27.628Z,26.27
2023-03-26T20:53:55.792Z,25.42
2023-03-26T20:56:23.667Z,25.60
2023-03-26T20:59:03.631Z,22.85
2023-03-26T21:01:35.665Z,30.73
2023-03-26T21:04:03.577Z,24.30
2023-03-26T21:06:31.143Z,18.05
2023-03-26T21:08:58.934Z,17.60
2023-03-26T21:11:34.848Z,14.30
2023-03-26T21:14:21.571Z,16.33
2023-03-26T21:16:49.330Z,9.60
2023-03-26T21:19:17.436Z,14.45
2023-03-26T21:22:03.575Z,12.65
2023-03-26T21:24:38.163Z,12.68
2023-03-26T21:27:12.450Z,15.38
2023-03-26T21:29:40.511Z,13.45
2023-03-26T21:32:09.792Z,14.88
2023-03-26T21:34:42.016Z,13.68
2023-03-26T21:37:12.596Z,12.52
2023-03-26T21:39:40.536Z,11.90
2023-03-26T21:42:12.654Z,18.67
2023-03-26T21:44:40.404Z,16.48
2023-03-26T21:47:09.508Z,15.00
2023-03-26T21:49:37.705Z,15.23
2023-03-26T21:52:05.445Z,18.52
2023-03-26T21:54:33.354Z,15.60
2023-03-26T21:57:03.505Z,13.82
2023-03-26T21:59:40.186Z,18.05
2023-03-26T22:02:26.230Z,13.52
2023-03-26T22:04:57.102Z,16.88
2023-03-26T22:07:32.480Z,15.35
2023-03-26T22:10:00.161Z,11.88
2023-03-26T22:12:27.684Z,11.27
2023-03-26T22:14:55.376Z,13.45
2023-03-26T22:17:22.963Z,9.68
2023-03-26T22:19:50.713Z,9.88
2023-03-26T22:22:18.063Z,9.48
2023-03-26T22:24:45.693Z,11.55
2023-03-26T22:27:13.149Z,15.88
2023-03-26T22:29:40.743Z,15.73
2023-03-26T22:32:08.108Z,12.75
2023-03-26T22:34:35.847Z,11.57
2023-03-26T22:37:03.233Z,13.77
2023-03-26T22:39:31.139Z,17.52
2023-03-26T22:41:58.556Z,13.18
2023-03-26T22:44:26.301Z,14.80
2023-03-26T22:46:53.776Z,15.70
2023-03-26T22:49:21.407Z,13.02
2023-03-26T22:51:50.349Z,12.20
2023-03-26T22:54:18.094Z,15.98
2023-03-26T22:56:45.493Z,17.60
2023-03-26T22:59:13.216Z,12.57
2023-03-26T23:01:40.613Z,13.88
2023-03-26T23:04:08.359Z,14.02
2023-03-26T23:06:35.805Z,11.38
2023-03-26T23:09:03.601Z,12.25
2023-03-26T23:11:41.118Z,11.10
2023-03-26T23:14:08.812Z,11.88
2023-03-26T23:16:36.208Z,10.25
2023-03-26T23:19:04.547Z,8.82
2023-03-26T23:21:32.060Z,11.50
2023-03-26T23:23:59.688Z,8.45
2023-03-26T23:26:27.271Z,8.95
2023-03-26T23:28:55.595Z,18.15
2023-03-26T23:31:22.962Z,9.80
2023-03-26T23:33:50.665Z,9.75
2023-03-26T23:36:19.009Z,9.40
2023-03-26T23:38:48.002Z,7.07
2023-03-26T23:41:16.390Z,7.70
2023-03-26T23:43:53.595Z,7.00
2023-03-26T23:46:21.646Z,10.07
2023-03-26T23:48:49.560Z,10.55
2023-03-26T23:51:20.677Z,11.45
2023-03-26T23:53:48.435Z,7.03
2023-03-26T23:56:16.190Z,7.32
2023-03-26T23:58:43.862Z,7.60
